Grider Field
KPBF : now visible

Airfield :











YOU CAN JOIN US ON...

 
LOGIN :

Register | Disclaimer

   EN    FR    IT 

 









Legend :    VFR   Marginal VFR   IFR   Intensive IFR   Very Intensive IFR
Visi :
Ceiling :
>= 8 km
>= 3000ft
5 to 8 km
1000 to 3000 ft
1500m to 5 km
500 to 1000 ft
800 to 1500m
200 to 500 ft
< 800m
< 200 ft
Symbols :   Thunderstorms  Fog  Heavy snow  Heavy precipitations  Wind > 20 kt






- Airport Elevation : 206 ft


KPBF - Grider Field

CURRENT METAR :
  • 301353Z AUTO 22007KT 10SM CLR 16/09 A3006 RMK AO2 SLP179 T01560089

EXPIRED METARs :
  • 301253Z AUTO 21005KT 10SM CLR 12/09 A3006 RMK AO2 SLP177 T01170089
  • 301153Z AUTO 22004KT 10SM CLR 11/08 A3004 RMK AO2 SLP171 T01060078 10122 20100 51009

TAF KPBF
Valid from the 30 at 12:00 until the 01 at 12:00 UTC


301120Z 3012/0112 24003KT P6SM SKC
FM301500 23009G16KT P6SM SKC
FM010800 34006KT P6SM SKC
KZME FIR / North America



MET'MAP, your aeronautical weather chart ! - Copyright ORBIFLY December 2007 - Disclaimer

ORBIFLY MET'MAP TEAM :

Programming & Development : Alexandra Zaïnal
Concept & original design : Baudouin d'Aumeries
Assistance for programming : Marc-Olivier Méhu
Technical & hardware support : Manuel Goepfert

Contact : metmap@orbifly.com




SOURCES & CREDITS :

   NOAA       Earth
Advisory